sensor_id;sensor_type;location;lat;lon;timestamp;P1;durP1;ratioP1;P2;durP2;ratioP2
17886;SDS011;9069;52.044;7.472;2023-05-10T00:00:54;3.40;;;3.03;;
17886;SDS011;9069;52.044;7.472;2023-05-10T00:03:21;2.67;;;2.30;;
17886;SDS011;9069;52.044;7.472;2023-05-10T00:05:48;3.35;;;2.38;;
17886;SDS011;9069;52.044;7.472;2023-05-10T00:08:15;4.00;;;2.60;;
17886;SDS011;9069;52.044;7.472;2023-05-10T00:10:41;2.83;;;2.47;;
17886;SDS011;9069;52.044;7.472;2023-05-10T00:13:08;3.45;;;2.50;;
17886;SDS011;9069;52.044;7.472;2023-05-10T00:15:35;2.72;;;2.40;;
17886;SDS011;9069;52.044;7.472;2023-05-10T00:18:02;2.90;;;2.55;;
17886;SDS011;9069;52.044;7.472;2023-05-10T00:20:28;2.72;;;2.53;;
17886;SDS011;9069;52.044;7.472;2023-05-10T00:22:55;3.20;;;2.55;;
17886;SDS011;9069;52.044;7.472;2023-05-10T00:25:22;2.95;;;2.65;;
17886;SDS011;9069;52.044;7.472;2023-05-10T00:27:49;4.72;;;2.40;;
17886;SDS011;9069;52.044;7.472;2023-05-10T00:30:15;3.30;;;2.75;;
17886;SDS011;9069;52.044;7.472;2023-05-10T00:32:43;5.57;;;2.92;;
17886;SDS011;9069;52.044;7.472;2023-05-10T00:35:09;2.67;;;2.47;;
17886;SDS011;9069;52.044;7.472;2023-05-10T00:37:37;2.80;;;2.50;;
17886;SDS011;9069;52.044;7.472;2023-05-10T00:40:03;4.00;;;2.72;;
17886;SDS011;9069;52.044;7.472;2023-05-10T00:42:31;3.30;;;3.00;;
17886;SDS011;9069;52.044;7.472;2023-05-10T00:44:58;4.95;;;2.47;;
17886;SDS011;9069;52.044;7.472;2023-05-10T00:47:25;3.40;;;2.47;;
17886;SDS011;9069;52.044;7.472;2023-05-10T00:49:52;2.42;;;1.98;;
17886;SDS011;9069;52.044;7.472;2023-05-10T00:52:19;2.75;;;1.92;;
17886;SDS011;9069;52.044;7.472;2023-05-10T00:54:46;1.42;;;1.30;;
17886;SDS011;9069;52.044;7.472;2023-05-10T00:57:13;1.33;;;1.23;;
17886;SDS011;9069;52.044;7.472;2023-05-10T00:59:40;1.10;;;1.00;;
17886;SDS011;9069;52.044;7.472;2023-05-10T01:02:07;2.15;;;1.42;;
17886;SDS011;9069;52.044;7.472;2023-05-10T01:04:34;1.30;;;1.20;;
17886;SDS011;9069;52.044;7.472;2023-05-10T01:07:02;1.10;;;1.00;;
17886;SDS011;9069;52.044;7.472;2023-05-10T01:09:28;1.20;;;1.10;;
17886;SDS011;9069;52.044;7.472;2023-05-10T01:11:55;1.00;;;0.90;;
17886;SDS011;9069;52.044;7.472;2023-05-10T01:14:23;1.08;;;1.00;;
17886;SDS011;9069;52.044;7.472;2023-05-10T01:16:51;1.35;;;1.25;;
17886;SDS011;9069;52.044;7.472;2023-05-10T01:19:23;2.25;;;0.88;;
17886;SDS011;9069;52.044;7.472;2023-05-10T01:22:04;1.98;;;0.75;;
17886;SDS011;9069;52.044;7.472;2023-05-10T01:24:57;0.70;;;0.70;;
17886;SDS011;9069;52.044;7.472;2023-05-10T01:33:34;1.10;;;1.00;;
17886;SDS011;9069;52.044;7.472;2023-05-10T01:36:13;2.38;;;0.93;;
17886;SDS011;9069;52.044;7.472;2023-05-10T01:41:33;1.15;;;1.05;;
17886;SDS011;9069;52.044;7.472;2023-05-10T01:50:01;1.10;;;1.00;;
17886;SDS011;9069;52.044;7.472;2023-05-10T01:52:40;0.80;;;0.80;;
17886;SDS011;9069;52.044;7.472;2023-05-10T01:55:11;1.00;;;0.85;;
17886;SDS011;9069;52.044;7.472;2023-05-10T01:57:42;2.05;;;1.20;;
17886;SDS011;9069;52.044;7.472;2023-05-10T02:00:12;1.27;;;0.80;;
17886;SDS011;9069;52.044;7.472;2023-05-10T02:02:42;1.20;;;0.93;;
17886;SDS011;9069;52.044;7.472;2023-05-10T02:05:12;1.23;;;1.10;;
17886;SDS011;9069;52.044;7.472;2023-05-10T02:07:41;1.10;;;1.00;;
17886;SDS011;9069;52.044;7.472;2023-05-10T02:10:10;1.40;;;1.05;;
17886;SDS011;9069;52.044;7.472;2023-05-10T02:12:39;1.95;;;1.23;;
17886;SDS011;9069;52.044;7.472;2023-05-10T02:15:10;1.27;;;1.08;;
17886;SDS011;9069;52.044;7.472;2023-05-10T02:17:38;1.15;;;1.05;;
17886;SDS011;9069;52.044;7.472;2023-05-10T02:20:07;1.30;;;1.20;;
17886;SDS011;9069;52.044;7.472;2023-05-10T02:22:34;1.20;;;1.10;;
17886;SDS011;9069;52.044;7.472;2023-05-10T02:25:02;1.38;;;1.20;;
17886;SDS011;9069;52.044;7.472;2023-05-10T02:27:30;4.25;;;1.42;;
17886;SDS011;9069;52.044;7.472;2023-05-10T02:29:57;1.42;;;1.33;;
17886;SDS011;9069;52.044;7.472;2023-05-10T02:32:26;1.40;;;1.30;;
17886;SDS011;9069;52.044;7.472;2023-05-10T02:34:55;1.38;;;1.27;;
17886;SDS011;9069;52.044;7.472;2023-05-10T02:37:23;2.97;;;1.35;;
17886;SDS011;9069;52.044;7.472;2023-05-10T02:39:52;1.50;;;1.27;;
17886;SDS011;9069;52.044;7.472;2023-05-10T02:42:31;1.73;;;1.48;;
17886;SDS011;9069;52.044;7.472;2023-05-10T02:45:05;1.90;;;1.70;;
17886;SDS011;9069;52.044;7.472;2023-05-10T02:47:35;3.25;;;1.58;;
17886;SDS011;9069;52.044;7.472;2023-05-10T02:50:02;2.08;;;1.88;;
17886;SDS011;9069;52.044;7.472;2023-05-10T02:52:36;2.92;;;1.92;;
17886;SDS011;9069;52.044;7.472;2023-05-10T02:55:14;1.90;;;1.70;;
17886;SDS011;9069;52.044;7.472;2023-05-10T02:57:43;2.17;;;2.00;;
17886;SDS011;9069;52.044;7.472;2023-05-10T03:00:15;1.98;;;1.80;;
17886;SDS011;9069;52.044;7.472;2023-05-10T03:02:42;2.30;;;2.10;;
17886;SDS011;9069;52.044;7.472;2023-05-10T03:05:09;2.60;;;2.30;;
17886;SDS011;9069;52.044;7.472;2023-05-10T03:07:36;2.15;;;1.95;;
17886;SDS011;9069;52.044;7.472;2023-05-10T03:10:03;3.10;;;2.55;;
17886;SDS011;9069;52.044;7.472;2023-05-10T03:18:16;3.22;;;2.38;;
17886;SDS011;9069;52.044;7.472;2023-05-10T03:20:57;2.17;;;1.88;;
17886;SDS011;9069;52.044;7.472;2023-05-10T03:26:01;2.35;;;2.08;;
17886;SDS011;9069;52.044;7.472;2023-05-10T03:28:29;2.80;;;2.38;;
17886;SDS011;9069;52.044;7.472;2023-05-10T03:30:57;2.40;;;2.20;;
17886;SDS011;9069;52.044;7.472;2023-05-10T03:33:26;3.00;;;2.63;;
17886;SDS011;9069;52.044;7.472;2023-05-10T03:35:52;2.50;;;2.30;;
17886;SDS011;9069;52.044;7.472;2023-05-10T03:38:19;2.70;;;2.40;;
17886;SDS011;9069;52.044;7.472;2023-05-10T03:40:46;3.33;;;2.55;;
17886;SDS011;9069;52.044;7.472;2023-05-10T03:43:12;3.88;;;2.83;;
17886;SDS011;9069;52.044;7.472;2023-05-10T03:45:39;2.78;;;2.30;;
17886;SDS011;9069;52.044;7.472;2023-05-10T03:48:06;3.55;;;2.80;;
17886;SDS011;9069;52.044;7.472;2023-05-10T03:50:33;2.75;;;2.38;;
17886;SDS011;9069;52.044;7.472;2023-05-10T03:52:59;3.35;;;2.40;;
17886;SDS011;9069;52.044;7.472;2023-05-10T03:55:27;2.95;;;2.63;;
17886;SDS011;9069;52.044;7.472;2023-05-10T03:57:55;3.40;;;2.20;;
17886;SDS011;9069;52.044;7.472;2023-05-10T04:00:22;2.30;;;2.03;;
17886;SDS011;9069;52.044;7.472;2023-05-10T04:02:53;3.03;;;2.40;;
17886;SDS011;9069;52.044;7.472;2023-05-10T04:05:19;3.20;;;2.17;;
17886;SDS011;9069;52.044;7.472;2023-05-10T04:07:46;5.35;;;2.40;;
17886;SDS011;9069;52.044;7.472;2023-05-10T04:10:15;2.75;;;2.47;;
17886;SDS011;9069;52.044;7.472;2023-05-10T04:12:43;3.30;;;2.63;;
17886;SDS011;9069;52.044;7.472;2023-05-10T04:15:09;2.80;;;2.30;;
17886;SDS011;9069;52.044;7.472;2023-05-10T04:17:36;2.58;;;2.38;;
17886;SDS011;9069;52.044;7.472;2023-05-10T04:20:03;2.70;;;2.47;;
17886;SDS011;9069;52.044;7.472;2023-05-10T04:22:31;2.78;;;2.38;;
17886;SDS011;9069;52.044;7.472;2023-05-10T04:24:58;4.00;;;2.63;;
17886;SDS011;9069;52.044;7.472;2023-05-10T04:27:25;4.70;;;2.92;;
17886;SDS011;9069;52.044;7.472;2023-05-10T04:29:51;2.83;;;2.53;;
17886;SDS011;9069;52.044;7.472;2023-05-10T04:32:18;3.83;;;2.60;;
17886;SDS011;9069;52.044;7.472;2023-05-10T04:34:46;3.30;;;2.83;;
17886;SDS011;9069;52.044;7.472;2023-05-10T04:37:13;3.92;;;3.25;;
17886;SDS011;9069;52.044;7.472;2023-05-10T04:39:40;4.72;;;3.50;;
17886;SDS011;9069;52.044;7.472;2023-05-10T04:42:07;6.55;;;3.30;;
17886;SDS011;9069;52.044;7.472;2023-05-10T04:44:34;5.25;;;3.08;;
17886;SDS011;9069;52.044;7.472;2023-05-10T04:47:01;4.38;;;3.72;;
17886;SDS011;9069;52.044;7.472;2023-05-10T04:49:29;5.68;;;3.72;;
17886;SDS011;9069;52.044;7.472;2023-05-10T04:51:56;5.65;;;4.07;;
17886;SDS011;9069;52.044;7.472;2023-05-10T04:54:22;5.00;;;4.28;;
17886;SDS011;9069;52.044;7.472;2023-05-10T04:56:49;6.25;;;3.90;;
17886;SDS011;9069;52.044;7.472;2023-05-10T04:59:16;5.57;;;4.30;;
17886;SDS011;9069;52.044;7.472;2023-05-10T05:01:43;7.18;;;4.45;;
17886;SDS011;9069;52.044;7.472;2023-05-10T05:04:10;6.20;;;4.10;;
17886;SDS011;9069;52.044;7.472;2023-05-10T05:06:37;7.28;;;4.35;;
17886;SDS011;9069;52.044;7.472;2023-05-10T05:09:03;7.78;;;4.43;;
17886;SDS011;9069;52.044;7.472;2023-05-10T05:11:30;7.82;;;5.13;;
17886;SDS011;9069;52.044;7.472;2023-05-10T05:13:57;7.45;;;4.90;;
17886;SDS011;9069;52.044;7.472;2023-05-10T05:16:25;6.93;;;5.05;;
17886;SDS011;9069;52.044;7.472;2023-05-10T05:18:52;8.07;;;5.50;;
17886;SDS011;9069;52.044;7.472;2023-05-10T05:21:19;11.15;;;5.38;;
17886;SDS011;9069;52.044;7.472;2023-05-10T05:23:46;10.38;;;6.15;;
17886;SDS011;9069;52.044;7.472;2023-05-10T05:26:13;8.60;;;5.72;;
17886;SDS011;9069;52.044;7.472;2023-05-10T05:28:41;9.18;;;6.47;;
17886;SDS011;9069;52.044;7.472;2023-05-10T05:31:08;13.23;;;7.33;;
17886;SDS011;9069;52.044;7.472;2023-05-10T05:33:35;10.32;;;6.68;;
17886;SDS011;9069;52.044;7.472;2023-05-10T05:36:02;12.40;;;7.20;;
17886;SDS011;9069;52.044;7.472;2023-05-10T05:38:30;14.13;;;8.60;;
17886;SDS011;9069;52.044;7.472;2023-05-10T05:40:57;13.68;;;8.40;;
17886;SDS011;9069;52.044;7.472;2023-05-10T05:43:24;14.80;;;8.45;;
17886;SDS011;9069;52.044;7.472;2023-05-10T05:45:52;13.63;;;8.38;;
17886;SDS011;9069;52.044;7.472;2023-05-10T05:48:20;13.25;;;8.00;;
17886;SDS011;9069;52.044;7.472;2023-05-10T05:50:46;13.57;;;8.48;;
17886;SDS011;9069;52.044;7.472;2023-05-10T05:53:13;14.82;;;9.10;;
17886;SDS011;9069;52.044;7.472;2023-05-10T05:55:40;17.20;;;9.75;;
17886;SDS011;9069;52.044;7.472;2023-05-10T05:58:06;14.63;;;9.15;;
17886;SDS011;9069;52.044;7.472;2023-05-10T06:00:33;15.35;;;9.75;;
17886;SDS011;9069;52.044;7.472;2023-05-10T06:03:00;19.67;;;11.05;;
17886;SDS011;9069;52.044;7.472;2023-05-10T06:05:27;19.25;;;10.02;;
17886;SDS011;9069;52.044;7.472;2023-05-10T06:07:53;19.52;;;10.70;;
17886;SDS011;9069;52.044;7.472;2023-05-10T06:10:20;18.10;;;11.10;;
17886;SDS011;9069;52.044;7.472;2023-05-10T06:12:48;21.27;;;11.70;;
17886;SDS011;9069;52.044;7.472;2023-05-10T06:15:15;19.95;;;11.32;;
17886;SDS011;9069;52.044;7.472;2023-05-10T06:17:43;22.80;;;11.00;;
17886;SDS011;9069;52.044;7.472;2023-05-10T06:20:10;20.23;;;11.52;;
17886;SDS011;9069;52.044;7.472;2023-05-10T06:22:37;21.40;;;12.15;;
17886;SDS011;9069;52.044;7.472;2023-05-10T06:25:04;23.08;;;12.40;;
17886;SDS011;9069;52.044;7.472;2023-05-10T06:27:31;20.48;;;12.00;;
17886;SDS011;9069;52.044;7.472;2023-05-10T06:29:58;21.40;;;12.73;;
17886;SDS011;9069;52.044;7.472;2023-05-10T06:32:37;20.80;;;11.45;;
17886;SDS011;9069;52.044;7.472;2023-05-10T06:35:04;21.30;;;12.25;;
17886;SDS011;9069;52.044;7.472;2023-05-10T06:37:31;21.38;;;11.73;;
17886;SDS011;9069;52.044;7.472;2023-05-10T06:39:58;18.83;;;10.88;;
17886;SDS011;9069;52.044;7.472;2023-05-10T06:42:25;19.92;;;11.13;;
17886;SDS011;9069;52.044;7.472;2023-05-10T06:44:53;18.98;;;10.40;;
17886;SDS011;9069;52.044;7.472;2023-05-10T06:47:19;16.75;;;10.23;;
17886;SDS011;9069;52.044;7.472;2023-05-10T06:49:46;18.27;;;11.18;;
17886;SDS011;9069;52.044;7.472;2023-05-10T06:52:13;17.33;;;9.70;;
17886;SDS011;9069;52.044;7.472;2023-05-10T06:54:40;18.83;;;10.57;;
17886;SDS011;9069;52.044;7.472;2023-05-10T06:57:07;19.23;;;10.65;;
17886;SDS011;9069;52.044;7.472;2023-05-10T06:59:54;21.73;;;12.43;;
17886;SDS011;9069;52.044;7.472;2023-05-10T07:02:22;21.98;;;12.68;;
17886;SDS011;9069;52.044;7.472;2023-05-10T07:04:49;20.67;;;11.88;;
17886;SDS011;9069;52.044;7.472;2023-05-10T07:07:18;23.48;;;13.07;;
17886;SDS011;9069;52.044;7.472;2023-05-10T07:09:45;27.38;;;13.75;;
17886;SDS011;9069;52.044;7.472;2023-05-10T07:12:12;25.42;;;13.77;;
17886;SDS011;9069;52.044;7.472;2023-05-10T07:14:41;23.92;;;13.95;;
17886;SDS011;9069;52.044;7.472;2023-05-10T07:17:08;24.42;;;14.40;;
17886;SDS011;9069;52.044;7.472;2023-05-10T07:19:34;22.95;;;13.25;;
17886;SDS011;9069;52.044;7.472;2023-05-10T07:22:02;26.65;;;14.82;;
17886;SDS011;9069;52.044;7.472;2023-05-10T07:24:29;25.85;;;14.23;;
17886;SDS011;9069;52.044;7.472;2023-05-10T07:26:57;27.75;;;14.23;;
17886;SDS011;9069;52.044;7.472;2023-05-10T07:29:23;24.90;;;14.18;;
17886;SDS011;9069;52.044;7.472;2023-05-10T07:31:50;21.10;;;12.80;;
17886;SDS011;9069;52.044;7.472;2023-05-10T07:34:17;22.65;;;13.27;;
17886;SDS011;9069;52.044;7.472;2023-05-10T07:36:44;21.20;;;12.93;;
17886;SDS011;9069;52.044;7.472;2023-05-10T07:39:11;18.77;;;11.52;;
17886;SDS011;9069;52.044;7.472;2023-05-10T07:41:46;21.02;;;11.43;;
17886;SDS011;9069;52.044;7.472;2023-05-10T07:44:13;20.65;;;12.40;;
17886;SDS011;9069;52.044;7.472;2023-05-10T07:46:40;23.52;;;13.00;;
17886;SDS011;9069;52.044;7.472;2023-05-10T07:49:06;21.58;;;13.10;;
17886;SDS011;9069;52.044;7.472;2023-05-10T07:51:33;23.38;;;13.20;;
17886;SDS011;9069;52.044;7.472;2023-05-10T07:54:00;22.63;;;12.98;;
17886;SDS011;9069;52.044;7.472;2023-05-10T07:56:29;21.65;;;13.20;;
17886;SDS011;9069;52.044;7.472;2023-05-10T07:58:58;22.15;;;12.82;;
17886;SDS011;9069;52.044;7.472;2023-05-10T08:01:26;19.77;;;12.27;;
17886;SDS011;9069;52.044;7.472;2023-05-10T08:03:55;25.45;;;13.35;;
17886;SDS011;9069;52.044;7.472;2023-05-10T08:06:22;22.83;;;14.00;;
17886;SDS011;9069;52.044;7.472;2023-05-10T08:08:49;21.48;;;12.60;;
17886;SDS011;9069;52.044;7.472;2023-05-10T08:11:16;25.38;;;13.65;;
17886;SDS011;9069;52.044;7.472;2023-05-10T08:13:44;23.52;;;12.75;;
17886;SDS011;9069;52.044;7.472;2023-05-10T08:16:11;26.55;;;14.18;;
17886;SDS011;9069;52.044;7.472;2023-05-10T08:18:38;19.23;;;12.48;;
17886;SDS011;9069;52.044;7.472;2023-05-10T08:21:05;22.23;;;13.63;;
17886;SDS011;9069;52.044;7.472;2023-05-10T08:23:32;25.80;;;14.05;;
17886;SDS011;9069;52.044;7.472;2023-05-10T08:25:59;23.05;;;13.48;;
17886;SDS011;9069;52.044;7.472;2023-05-10T08:28:26;23.50;;;13.27;;
17886;SDS011;9069;52.044;7.472;2023-05-10T08:30:53;25.80;;;14.40;;
17886;SDS011;9069;52.044;7.472;2023-05-10T08:33:20;22.90;;;13.60;;
17886;SDS011;9069;52.044;7.472;2023-05-10T08:35:47;22.65;;;13.90;;
17886;SDS011;9069;52.044;7.472;2023-05-10T08:38:14;26.33;;;14.80;;
17886;SDS011;9069;52.044;7.472;2023-05-10T08:40:41;24.23;;;14.68;;
17886;SDS011;9069;52.044;7.472;2023-05-10T08:43:09;25.58;;;13.60;;
17886;SDS011;9069;52.044;7.472;2023-05-10T08:45:40;21.67;;;13.77;;
17886;SDS011;9069;52.044;7.472;2023-05-10T08:48:09;21.23;;;13.32;;
17886;SDS011;9069;52.044;7.472;2023-05-10T08:50:37;24.83;;;12.82;;
17886;SDS011;9069;52.044;7.472;2023-05-10T08:53:06;24.75;;;13.18;;
17886;SDS011;9069;52.044;7.472;2023-05-10T08:55:36;22.85;;;13.93;;
17886;SDS011;9069;52.044;7.472;2023-05-10T08:58:05;24.60;;;12.52;;
17886;SDS011;9069;52.044;7.472;2023-05-10T09:00:32;19.73;;;11.43;;
17886;SDS011;9069;52.044;7.472;2023-05-10T09:03:00;20.27;;;12.50;;
17886;SDS011;9069;52.044;7.472;2023-05-10T09:05:27;18.80;;;11.90;;
17886;SDS011;9069;52.044;7.472;2023-05-10T09:07:54;20.95;;;12.48;;
17886;SDS011;9069;52.044;7.472;2023-05-10T09:10:21;22.70;;;11.98;;
17886;SDS011;9069;52.044;7.472;2023-05-10T09:12:52;21.77;;;12.57;;
17886;SDS011;9069;52.044;7.472;2023-05-10T09:15:20;19.50;;;11.90;;
17886;SDS011;9069;52.044;7.472;2023-05-10T09:17:47;23.00;;;11.55;;
17886;SDS011;9069;52.044;7.472;2023-05-10T09:20:15;20.73;;;11.55;;
17886;SDS011;9069;52.044;7.472;2023-05-10T09:22:43;26.27;;;11.85;;
17886;SDS011;9069;52.044;7.472;2023-05-10T09:25:11;20.88;;;11.25;;
17886;SDS011;9069;52.044;7.472;2023-05-10T09:27:40;20.45;;;11.30;;
17886;SDS011;9069;52.044;7.472;2023-05-10T09:30:10;20.88;;;11.70;;
17886;SDS011;9069;52.044;7.472;2023-05-10T09:32:42;24.38;;;11.45;;
17886;SDS011;9069;52.044;7.472;2023-05-10T09:35:11;21.83;;;13.13;;
17886;SDS011;9069;52.044;7.472;2023-05-10T09:37:38;22.67;;;12.32;;
17886;SDS011;9069;52.044;7.472;2023-05-10T09:40:13;19.60;;;11.88;;
17886;SDS011;9069;52.044;7.472;2023-05-10T09:45:25;19.52;;;10.65;;
17886;SDS011;9069;52.044;7.472;2023-05-10T09:47:53;21.58;;;11.93;;
17886;SDS011;9069;52.044;7.472;2023-05-10T09:50:22;21.38;;;11.43;;
17886;SDS011;9069;52.044;7.472;2023-05-10T09:55:48;18.80;;;10.77;;
17886;SDS011;9069;52.044;7.472;2023-05-10T09:58:15;19.20;;;10.43;;
17886;SDS011;9069;52.044;7.472;2023-05-10T10:00:42;15.55;;;9.40;;
17886;SDS011;9069;52.044;7.472;2023-05-10T10:03:13;18.88;;;11.25;;
17886;SDS011;9069;52.044;7.472;2023-05-10T10:05:41;18.42;;;10.70;;
17886;SDS011;9069;52.044;7.472;2023-05-10T10:08:10;18.17;;;11.25;;
17886;SDS011;9069;52.044;7.472;2023-05-10T10:10:38;21.13;;;10.85;;
17886;SDS011;9069;52.044;7.472;2023-05-10T10:13:06;18.60;;;10.68;;
17886;SDS011;9069;52.044;7.472;2023-05-10T10:15:34;19.80;;;11.27;;
17886;SDS011;9069;52.044;7.472;2023-05-10T10:18:01;18.10;;;12.13;;
17886;SDS011;9069;52.044;7.472;2023-05-10T10:20:30;24.95;;;13.02;;
17886;SDS011;9069;52.044;7.472;2023-05-10T10:22:57;14.80;;;10.23;;
17886;SDS011;9069;52.044;7.472;2023-05-10T10:25:23;16.00;;;10.13;;
17886;SDS011;9069;52.044;7.472;2023-05-10T10:33:13;14.88;;;9.43;;
17886;SDS011;9069;52.044;7.472;2023-05-10T10:35:54;19.98;;;11.02;;
17886;SDS011;9069;52.044;7.472;2023-05-10T10:38:21;20.45;;;11.27;;
17886;SDS011;9069;52.044;7.472;2023-05-10T10:40:49;19.58;;;10.50;;
17886;SDS011;9069;52.044;7.472;2023-05-10T10:43:29;16.40;;;9.80;;
17886;SDS011;9069;52.044;7.472;2023-05-10T10:46:15;21.55;;;11.73;;
17886;SDS011;9069;52.044;7.472;2023-05-10T10:48:47;21.98;;;11.27;;
17886;SDS011;9069;52.044;7.472;2023-05-10T10:51:15;18.35;;;10.52;;
17886;SDS011;9069;52.044;7.472;2023-05-10T10:53:42;19.17;;;10.32;;
17886;SDS011;9069;52.044;7.472;2023-05-10T10:56:12;17.48;;;10.27;;
17886;SDS011;9069;52.044;7.472;2023-05-10T10:58:42;19.17;;;10.23;;
17886;SDS011;9069;52.044;7.472;2023-05-10T11:01:18;18.75;;;10.63;;
17886;SDS011;9069;52.044;7.472;2023-05-10T11:06:30;14.98;;;9.18;;
17886;SDS011;9069;52.044;7.472;2023-05-10T11:09:11;16.63;;;9.65;;
17886;SDS011;9069;52.044;7.472;2023-05-10T11:11:51;18.27;;;10.70;;
17886;SDS011;9069;52.044;7.472;2023-05-10T11:14:21;17.98;;;9.60;;
17886;SDS011;9069;52.044;7.472;2023-05-10T11:16:48;16.92;;;9.00;;
17886;SDS011;9069;52.044;7.472;2023-05-10T11:19:16;14.68;;;9.15;;
17886;SDS011;9069;52.044;7.472;2023-05-10T11:21:47;15.00;;;9.40;;
17886;SDS011;9069;52.044;7.472;2023-05-10T11:24:20;16.23;;;9.90;;
17886;SDS011;9069;52.044;7.472;2023-05-10T11:26:49;13.75;;;9.25;;
17886;SDS011;9069;52.044;7.472;2023-05-10T11:29:17;15.65;;;10.13;;
17886;SDS011;9069;52.044;7.472;2023-05-10T11:31:45;19.85;;;10.07;;
17886;SDS011;9069;52.044;7.472;2023-05-10T11:34:22;15.05;;;9.70;;
17886;SDS011;9069;52.044;7.472;2023-05-10T11:37:01;15.38;;;10.38;;
17886;SDS011;9069;52.044;7.472;2023-05-10T11:39:29;15.45;;;9.90;;
17886;SDS011;9069;52.044;7.472;2023-05-10T11:41:57;16.23;;;9.93;;
17886;SDS011;9069;52.044;7.472;2023-05-10T11:44:31;14.68;;;9.77;;
17886;SDS011;9069;52.044;7.472;2023-05-10T11:47:01;15.88;;;10.57;;
17886;SDS011;9069;52.044;7.472;2023-05-10T11:49:29;16.77;;;10.45;;
17886;SDS011;9069;52.044;7.472;2023-05-10T11:52:08;15.02;;;9.27;;
17886;SDS011;9069;52.044;7.472;2023-05-10T11:54:35;13.45;;;8.77;;
17886;SDS011;9069;52.044;7.472;2023-05-10T11:57:02;12.75;;;8.65;;
17886;SDS011;9069;52.044;7.472;2023-05-10T11:59:29;15.15;;;9.00;;
17886;SDS011;9069;52.044;7.472;2023-05-10T12:01:56;12.45;;;8.43;;
17886;SDS011;9069;52.044;7.472;2023-05-10T12:04:22;19.52;;;9.43;;
17886;SDS011;9069;52.044;7.472;2023-05-10T12:06:50;15.50;;;8.90;;
17886;SDS011;9069;52.044;7.472;2023-05-10T12:09:17;12.23;;;8.43;;
17886;SDS011;9069;52.044;7.472;2023-05-10T12:11:57;13.85;;;8.73;;
17886;SDS011;9069;52.044;7.472;2023-05-10T12:14:23;11.82;;;7.88;;
17886;SDS011;9069;52.044;7.472;2023-05-10T12:16:50;10.10;;;7.63;;
17886;SDS011;9069;52.044;7.472;2023-05-10T12:19:20;10.93;;;7.38;;
17886;SDS011;9069;52.044;7.472;2023-05-10T12:21:47;10.95;;;6.85;;
17886;SDS011;9069;52.044;7.472;2023-05-10T12:24:15;9.13;;;6.80;;
17886;SDS011;9069;52.044;7.472;2023-05-10T12:26:45;11.38;;;7.10;;
17886;SDS011;9069;52.044;7.472;2023-05-10T12:29:12;10.15;;;5.82;;
17886;SDS011;9069;52.044;7.472;2023-05-10T12:31:57;9.13;;;6.55;;
17886;SDS011;9069;52.044;7.472;2023-05-10T12:34:34;9.50;;;6.15;;
17886;SDS011;9069;52.044;7.472;2023-05-10T12:37:03;9.65;;;5.68;;
17886;SDS011;9069;52.044;7.472;2023-05-10T12:39:42;9.98;;;6.93;;
17886;SDS011;9069;52.044;7.472;2023-05-10T12:42:10;10.73;;;6.47;;
17886;SDS011;9069;52.044;7.472;2023-05-10T12:44:38;11.80;;;6.88;;
17886;SDS011;9069;52.044;7.472;2023-05-10T12:47:04;11.02;;;7.00;;
17886;SDS011;9069;52.044;7.472;2023-05-10T12:49:32;12.50;;;7.40;;
17886;SDS011;9069;52.044;7.472;2023-05-10T12:51:58;12.85;;;7.68;;
17886;SDS011;9069;52.044;7.472;2023-05-10T12:54:25;11.65;;;8.82;;
17886;SDS011;9069;52.044;7.472;2023-05-10T12:56:52;13.38;;;8.27;;
17886;SDS011;9069;52.044;7.472;2023-05-10T12:59:18;13.55;;;8.98;;
17886;SDS011;9069;52.044;7.472;2023-05-10T13:01:45;12.93;;;8.30;;
17886;SDS011;9069;52.044;7.472;2023-05-10T13:04:12;13.45;;;8.88;;
17886;SDS011;9069;52.044;7.472;2023-05-10T13:06:39;15.10;;;8.65;;
17886;SDS011;9069;52.044;7.472;2023-05-10T13:09:06;12.27;;;7.45;;
17886;SDS011;9069;52.044;7.472;2023-05-10T13:11:33;13.13;;;8.30;;
17886;SDS011;9069;52.044;7.472;2023-05-10T13:13:59;11.10;;;7.53;;
17886;SDS011;9069;52.044;7.472;2023-05-10T13:16:26;11.63;;;7.57;;
17886;SDS011;9069;52.044;7.472;2023-05-10T13:18:53;15.50;;;8.10;;
17886;SDS011;9069;52.044;7.472;2023-05-10T13:21:20;12.00;;;7.93;;
17886;SDS011;9069;52.044;7.472;2023-05-10T13:23:46;10.07;;;7.05;;
17886;SDS011;9069;52.044;7.472;2023-05-10T13:26:13;10.75;;;6.82;;
17886;SDS011;9069;52.044;7.472;2023-05-10T13:28:40;9.80;;;6.63;;
17886;SDS011;9069;52.044;7.472;2023-05-10T13:31:07;10.35;;;6.28;;
17886;SDS011;9069;52.044;7.472;2023-05-10T13:33:34;12.13;;;7.13;;
17886;SDS011;9069;52.044;7.472;2023-05-10T13:36:01;10.25;;;6.45;;
17886;SDS011;9069;52.044;7.472;2023-05-10T13:38:27;10.25;;;6.15;;
17886;SDS011;9069;52.044;7.472;2023-05-10T13:40:54;10.15;;;6.88;;
17886;SDS011;9069;52.044;7.472;2023-05-10T13:43:21;9.38;;;6.45;;
17886;SDS011;9069;52.044;7.472;2023-05-10T13:45:48;8.55;;;5.93;;
17886;SDS011;9069;52.044;7.472;2023-05-10T13:48:14;11.38;;;6.13;;
17886;SDS011;9069;52.044;7.472;2023-05-10T13:50:41;11.35;;;6.93;;
17886;SDS011;9069;52.044;7.472;2023-05-10T13:53:08;11.15;;;6.90;;
17886;SDS011;9069;52.044;7.472;2023-05-10T13:55:35;11.60;;;6.68;;
17886;SDS011;9069;52.044;7.472;2023-05-10T13:58:02;11.48;;;7.40;;
17886;SDS011;9069;52.044;7.472;2023-05-10T14:00:29;13.52;;;7.90;;
17886;SDS011;9069;52.044;7.472;2023-05-10T14:02:55;10.77;;;7.30;;
17886;SDS011;9069;52.044;7.472;2023-05-10T14:05:22;13.57;;;7.63;;
17886;SDS011;9069;52.044;7.472;2023-05-10T14:07:51;11.20;;;7.18;;
17886;SDS011;9069;52.044;7.472;2023-05-10T14:10:18;10.82;;;7.22;;
17886;SDS011;9069;52.044;7.472;2023-05-10T14:12:45;16.08;;;8.40;;
17886;SDS011;9069;52.044;7.472;2023-05-10T14:15:12;15.95;;;8.82;;
17886;SDS011;9069;52.044;7.472;2023-05-10T14:17:38;13.32;;;8.60;;
17886;SDS011;9069;52.044;7.472;2023-05-10T14:20:05;11.70;;;7.95;;
17886;SDS011;9069;52.044;7.472;2023-05-10T14:22:33;12.30;;;7.18;;
17886;SDS011;9069;52.044;7.472;2023-05-10T14:25:00;12.93;;;8.10;;
17886;SDS011;9069;52.044;7.472;2023-05-10T14:27:26;14.82;;;7.75;;
17886;SDS011;9069;52.044;7.472;2023-05-10T14:29:53;11.23;;;7.45;;
17886;SDS011;9069;52.044;7.472;2023-05-10T14:32:20;13.77;;;8.20;;
17886;SDS011;9069;52.044;7.472;2023-05-10T14:34:47;11.73;;;7.95;;
17886;SDS011;9069;52.044;7.472;2023-05-10T14:37:13;11.23;;;7.72;;
17886;SDS011;9069;52.044;7.472;2023-05-10T14:39:41;15.70;;;8.63;;
17886;SDS011;9069;52.044;7.472;2023-05-10T14:42:08;13.13;;;8.40;;
17886;SDS011;9069;52.044;7.472;2023-05-10T14:44:35;12.18;;;8.10;;
17886;SDS011;9069;52.044;7.472;2023-05-10T14:47:02;13.35;;;8.43;;
17886;SDS011;9069;52.044;7.472;2023-05-10T14:49:28;13.52;;;8.20;;
17886;SDS011;9069;52.044;7.472;2023-05-10T14:51:55;11.98;;;7.93;;
17886;SDS011;9069;52.044;7.472;2023-05-10T14:54:22;11.90;;;8.10;;
17886;SDS011;9069;52.044;7.472;2023-05-10T14:56:49;13.10;;;8.00;;
17886;SDS011;9069;52.044;7.472;2023-05-10T14:59:16;13.18;;;8.02;;
17886;SDS011;9069;52.044;7.472;2023-05-10T15:01:43;10.57;;;7.45;;
17886;SDS011;9069;52.044;7.472;2023-05-10T15:04:10;12.68;;;6.95;;
17886;SDS011;9069;52.044;7.472;2023-05-10T15:06:39;11.63;;;7.60;;
17886;SDS011;9069;52.044;7.472;2023-05-10T15:09:06;11.15;;;6.35;;
17886;SDS011;9069;52.044;7.472;2023-05-10T15:11:33;13.32;;;6.35;;
17886;SDS011;9069;52.044;7.472;2023-05-10T15:14:00;8.00;;;4.93;;
17886;SDS011;9069;52.044;7.472;2023-05-10T15:16:27;7.90;;;5.68;;
17886;SDS011;9069;52.044;7.472;2023-05-10T15:18:54;9.20;;;5.90;;
17886;SDS011;9069;52.044;7.472;2023-05-10T15:21:21;13.63;;;5.60;;
17886;SDS011;9069;52.044;7.472;2023-05-10T15:23:48;10.63;;;6.50;;
17886;SDS011;9069;52.044;7.472;2023-05-10T15:26:14;9.77;;;6.78;;
17886;SDS011;9069;52.044;7.472;2023-05-10T15:28:41;10.18;;;6.47;;
17886;SDS011;9069;52.044;7.472;2023-05-10T15:31:08;12.90;;;7.13;;